createdAt,value
2022-10-09T00:00:49.890Z,7.11
2022-10-09T00:03:18.791Z,7.06
2022-10-09T00:05:48.742Z,7.01
2022-10-09T00:08:15.595Z,6.97
2022-10-09T00:10:42.794Z,6.92
2022-10-09T00:13:09.747Z,6.89
2022-10-09T00:15:40.914Z,6.84
2022-10-09T00:18:09.090Z,6.80
2022-10-09T00:20:40.503Z,6.76
2022-10-09T00:23:10.855Z,6.69
2022-10-09T00:25:37.964Z,6.62
2022-10-09T00:28:06.187Z,6.62
2022-10-09T00:30:32.729Z,6.61
2022-10-09T00:32:59.606Z,6.58
2022-10-09T00:35:29.371Z,6.59
2022-10-09T00:37:56.016Z,6.60
2022-10-09T00:40:24.008Z,6.60
2022-10-09T00:42:57.269Z,6.57
2022-10-09T00:45:23.998Z,6.56
2022-10-09T00:47:58.307Z,6.56
2022-10-09T00:50:26.835Z,6.55
2022-10-09T00:52:59.924Z,6.53
2022-10-09T00:55:28.779Z,6.48
2022-10-09T00:57:57.353Z,6.50
2022-10-09T01:00:27.171Z,6.48
2022-10-09T01:02:54.670Z,6.48
2022-10-09T01:06:02.200Z,6.45
2022-10-09T01:08:39.490Z,6.42
2022-10-09T01:11:26.420Z,6.42
2022-10-09T01:14:25.042Z,6.44
2022-10-09T01:17:34.198Z,6.43
2022-10-09T01:20:37.715Z,6.40
2022-10-09T01:23:17.951Z,6.37
2022-10-09T01:26:09.409Z,6.35
2022-10-09T01:28:41.254Z,6.29
2022-10-09T01:31:09.545Z,6.27
2022-10-09T01:33:37.081Z,6.26
2022-10-09T01:36:05.809Z,6.21
2022-10-09T01:38:34.391Z,6.21
2022-10-09T01:41:07.653Z,6.14
2022-10-09T01:43:34.281Z,6.09
2022-10-09T01:46:21.879Z,6.02
2022-10-09T01:48:57.107Z,5.98
2022-10-09T01:51:33.342Z,5.93
2022-10-09T01:54:04.856Z,5.92
2022-10-09T01:56:37.890Z,5.87
2022-10-09T01:59:15.897Z,5.87
2022-10-09T02:01:43.247Z,5.88
2022-10-09T02:04:13.629Z,5.94
2022-10-09T02:06:44.867Z,5.96
2022-10-09T02:09:17.135Z,5.96
2022-10-09T02:11:49.363Z,5.95
2022-10-09T02:14:16.155Z,5.97
2022-10-09T02:16:46.859Z,5.97
2022-10-09T02:19:37.076Z,5.97
2022-10-09T02:22:27.487Z,5.96
2022-10-09T02:24:54.961Z,5.93
2022-10-09T02:27:24.274Z,5.91
2022-10-09T02:29:51.901Z,5.87
2022-10-09T02:32:19.131Z,5.82
2022-10-09T02:34:45.983Z,5.77
2022-10-09T02:37:12.734Z,5.71
2022-10-09T02:39:39.782Z,5.66
2022-10-09T02:42:07.315Z,5.62
2022-10-09T02:44:33.992Z,5.58
2022-10-09T02:47:01.388Z,5.55
2022-10-09T02:49:28.501Z,5.54
2022-10-09T02:51:56.064Z,5.54
2022-10-09T02:54:23.237Z,5.57
2022-10-09T02:56:52.680Z,5.59
2022-10-09T02:59:19.958Z,5.59
2022-10-09T03:01:47.090Z,5.60
2022-10-09T03:04:13.734Z,5.62
2022-10-09T03:06:40.718Z,5.61
2022-10-09T03:09:07.641Z,5.61
2022-10-09T03:11:34.176Z,5.60
2022-10-09T03:14:00.798Z,5.59
2022-10-09T03:16:27.697Z,5.57
2022-10-09T03:18:55.536Z,5.57
2022-10-09T03:21:27.166Z,5.56
2022-10-09T03:23:54.754Z,5.52
2022-10-09T03:26:24.183Z,5.54
2022-10-09T03:28:52.435Z,5.53
2022-10-09T03:31:39.818Z,5.52
2022-10-09T03:34:06.856Z,5.52
2022-10-09T03:36:33.870Z,5.53
2022-10-09T03:39:00.781Z,5.53
2022-10-09T03:41:27.813Z,5.52
2022-10-09T03:43:54.830Z,5.47
2022-10-09T03:46:21.480Z,5.47
2022-10-09T03:48:48.519Z,5.47
2022-10-09T03:51:14.999Z,5.49
2022-10-09T03:53:41.666Z,5.52
2022-10-09T03:56:08.195Z,5.54
2022-10-09T03:58:34.910Z,5.53
2022-10-09T04:01:02.051Z,5.53
2022-10-09T04:03:32.190Z,5.49
2022-10-09T04:05:59.103Z,5.45
2022-10-09T04:08:25.839Z,5.43
2022-10-09T04:11:03.265Z,5.38
2022-10-09T04:13:34.946Z,5.33
2022-10-09T04:16:01.619Z,5.28
2022-10-09T04:18:28.302Z,5.26
2022-10-09T04:20:56.851Z,5.24
2022-10-09T04:23:27.042Z,5.21
2022-10-09T04:25:55.090Z,5.17
2022-10-09T04:28:23.667Z,5.19
2022-10-09T04:30:50.711Z,5.15
2022-10-09T04:33:17.332Z,5.18
2022-10-09T04:35:52.220Z,5.16
2022-10-09T04:38:19.924Z,5.14
2022-10-09T04:41:15.749Z,5.13
2022-10-09T04:43:42.603Z,5.11
2022-10-09T04:46:15.589Z,5.10
2022-10-09T04:48:46.273Z,5.10
2022-10-09T04:51:14.940Z,5.12
2022-10-09T04:53:44.200Z,5.12
2022-10-09T04:56:13.765Z,5.11
2022-10-09T04:58:43.176Z,5.11
2022-10-09T05:01:21.478Z,5.11
2022-10-09T05:03:48.567Z,5.09
2022-10-09T05:06:15.814Z,5.07
2022-10-09T05:08:42.766Z,5.05
2022-10-09T05:11:17.145Z,4.99
2022-10-09T05:13:47.799Z,5.00
2022-10-09T05:16:18.057Z,4.99
2022-10-09T05:18:47.793Z,4.98
2022-10-09T05:21:15.332Z,4.96
2022-10-09T05:23:42.381Z,4.95
2022-10-09T05:26:15.923Z,4.95
2022-10-09T05:28:42.920Z,4.92
2022-10-09T05:31:15.422Z,4.89
2022-10-09T05:33:42.883Z,4.88
2022-10-09T05:36:15.007Z,4.91
2022-10-09T05:38:42.367Z,4.92
2022-10-09T05:41:11.895Z,4.93
2022-10-09T05:43:41.114Z,4.94
2022-10-09T05:46:07.919Z,4.96
2022-10-09T05:48:35.025Z,4.94
2022-10-09T05:51:09.173Z,4.94
2022-10-09T05:53:43.327Z,4.94
2022-10-09T05:56:20.995Z,4.93
2022-10-09T05:58:53.563Z,4.94
2022-10-09T06:01:21.593Z,4.94
2022-10-09T06:03:53.422Z,4.93
2022-10-09T06:06:22.229Z,4.92
2022-10-09T06:08:49.310Z,4.95
2022-10-09T06:11:28.874Z,4.94
2022-10-09T06:13:56.799Z,4.94
2022-10-09T06:16:25.914Z,4.93
2022-10-09T06:18:54.408Z,4.97
2022-10-09T06:21:22.197Z,4.99
2022-10-09T06:23:50.714Z,5.00
2022-10-09T06:26:18.189Z,5.06
2022-10-09T06:28:45.366Z,5.09
2022-10-09T06:31:14.509Z,5.11
2022-10-09T06:33:43.647Z,5.17
2022-10-09T06:36:21.161Z,5.21
2022-10-09T06:38:48.598Z,5.24
2022-10-09T06:41:23.755Z,5.27
2022-10-09T06:43:55.055Z,5.35
2022-10-09T06:46:24.625Z,5.44
2022-10-09T06:48:51.797Z,5.51
2022-10-09T06:51:20.858Z,5.58
2022-10-09T06:53:50.249Z,5.64
2022-10-09T06:56:18.603Z,5.68
2022-10-09T06:58:45.534Z,5.75
2022-10-09T07:01:18.346Z,5.83
2022-10-09T07:03:47.289Z,5.90
2022-10-09T07:06:34.957Z,5.96
2022-10-09T07:09:05.412Z,6.04
2022-10-09T07:11:37.451Z,6.12
2022-10-09T07:14:09.802Z,6.22
2022-10-09T07:16:42.333Z,6.28
2022-10-09T07:19:13.920Z,6.36
2022-10-09T07:21:43.010Z,6.44
2022-10-09T07:24:12.469Z,6.54
2022-10-09T07:26:40.632Z,6.65
2022-10-09T07:29:07.950Z,6.74
2022-10-09T07:31:35.024Z,6.85
2022-10-09T07:34:01.895Z,6.95
2022-10-09T07:36:28.591Z,7.06
2022-10-09T07:38:56.770Z,7.48
2022-10-09T07:41:25.895Z,8.31
2022-10-09T07:43:52.439Z,9.46
2022-10-09T07:46:20.938Z,10.90
2022-10-09T07:48:48.720Z,11.69
2022-10-09T07:51:32.107Z,13.17
2022-10-09T07:54:02.354Z,14.27
2022-10-09T07:56:38.054Z,14.86
2022-10-09T07:59:08.242Z,15.32
2022-10-09T08:01:35.833Z,15.92
2022-10-09T08:04:03.210Z,15.72
2022-10-09T08:06:31.964Z,15.74
2022-10-09T08:09:00.118Z,15.88
2022-10-09T08:11:28.967Z,15.95
2022-10-09T08:13:58.893Z,16.08
2022-10-09T08:16:26.807Z,15.98
2022-10-09T08:19:01.730Z,14.75
2022-10-09T08:21:29.214Z,13.62
2022-10-09T08:23:58.471Z,13.22
2022-10-09T08:26:26.970Z,12.69
2022-10-09T08:28:56.959Z,12.08
2022-10-09T08:31:24.327Z,11.66
2022-10-09T08:34:00.803Z,11.71
2022-10-09T08:36:30.213Z,11.50
2022-10-09T08:38:57.228Z,11.47
2022-10-09T08:41:33.096Z,11.58
2022-10-09T08:44:04.698Z,12.53
2022-10-09T08:46:47.331Z,13.89
2022-10-09T08:49:57.492Z,14.85
2022-10-09T08:52:52.545Z,15.33
2022-10-09T08:55:23.795Z,15.59
2022-10-09T08:57:53.768Z,15.94
2022-10-09T09:00:27.667Z,16.26
2022-10-09T09:03:15.108Z,16.37
2022-10-09T09:05:53.966Z,16.47
2022-10-09T09:08:32.718Z,16.43
2022-10-09T09:11:21.663Z,16.62
2022-10-09T09:14:00.943Z,16.71
2022-10-09T09:16:55.699Z,17.01
2022-10-09T09:19:47.087Z,17.22
2022-10-09T09:22:17.185Z,17.40
2022-10-09T09:24:49.746Z,17.49
2022-10-09T09:27:21.896Z,17.33
2022-10-09T09:30:23.680Z,17.28
2022-10-09T09:32:54.188Z,17.15
2022-10-09T09:35:29.881Z,16.82
2022-10-09T09:37:56.666Z,16.36
2022-10-09T09:40:36.877Z,15.93
2022-10-09T09:43:33.522Z,15.52
2022-10-09T09:46:01.367Z,15.22
2022-10-09T09:48:31.059Z,15.04
2022-10-09T09:51:16.043Z,14.92
2022-10-09T09:53:48.504Z,14.97
2022-10-09T09:56:16.320Z,15.01
2022-10-09T09:58:49.942Z,15.07
2022-10-09T10:01:31.276Z,15.07
2022-10-09T10:04:01.515Z,15.15
2022-10-09T10:06:34.453Z,15.23
2022-10-09T10:09:12.944Z,15.15
2022-10-09T10:12:04.722Z,15.06
2022-10-09T10:14:32.610Z,15.09
2022-10-09T10:17:00.167Z,15.28
2022-10-09T10:19:31.462Z,15.27
2022-10-09T10:22:04.888Z,15.27
2022-10-09T10:24:42.779Z,15.36
2022-10-09T10:27:41.050Z,15.36
2022-10-09T10:30:14.750Z,15.40
2022-10-09T10:33:04.181Z,15.54
2022-10-09T10:35:35.901Z,15.82
2022-10-09T10:38:07.746Z,15.97
2022-10-09T10:40:48.587Z,16.01
2022-10-09T10:43:39.536Z,16.00
2022-10-09T10:46:16.317Z,16.17
2022-10-09T10:48:49.180Z,16.39
2022-10-09T10:51:37.640Z,16.38
2022-10-09T10:54:36.325Z,16.35
2022-10-09T10:57:15.173Z,16.43
2022-10-09T11:00:19.487Z,16.54
2022-10-09T11:03:24.314Z,16.45
2022-10-09T11:06:03.884Z,16.51
2022-10-09T11:08:45.284Z,16.77
2022-10-09T11:12:04.570Z,17.04
2022-10-09T11:14:57.334Z,17.22
2022-10-09T11:17:34.568Z,17.30
2022-10-09T11:20:25.955Z,17.37
2022-10-09T11:23:09.703Z,17.38
2022-10-09T11:25:50.573Z,17.35
2022-10-09T11:28:24.802Z,17.30
2022-10-09T11:31:10.191Z,17.30
2022-10-09T11:33:46.035Z,17.41
2022-10-09T11:36:26.704Z,17.49
2022-10-09T11:38:59.249Z,17.64
2022-10-09T11:41:28.083Z,17.77
2022-10-09T11:44:06.289Z,17.95
2022-10-09T11:46:38.718Z,18.15
2022-10-09T11:49:42.888Z,18.33
2022-10-09T11:52:21.015Z,18.63
2022-10-09T11:54:47.766Z,18.73
2022-10-09T11:57:15.440Z,18.84
2022-10-09T11:59:42.807Z,19.18
2022-10-09T12:02:31.779Z,19.51
2022-10-09T12:04:58.700Z,19.58
2022-10-09T12:07:40.288Z,19.59
2022-10-09T12:10:21.528Z,19.61
2022-10-09T12:12:59.841Z,19.63
2022-10-09T12:15:47.480Z,19.78
2022-10-09T12:18:23.219Z,19.75
2022-10-09T12:20:50.806Z,19.63
2022-10-09T12:23:27.344Z,19.67
2022-10-09T12:25:56.726Z,19.70
2022-10-09T12:28:39.345Z,19.71
2022-10-09T12:31:17.460Z,19.54
2022-10-09T12:33:49.582Z,19.34
2022-10-09T12:36:23.947Z,19.17
2022-10-09T12:38:51.005Z,19.02
2022-10-09T12:41:24.941Z,18.96
2022-10-09T12:43:54.932Z,19.06
2022-10-09T12:46:33.625Z,19.03
2022-10-09T12:49:04.494Z,18.81
2022-10-09T12:51:33.591Z,18.71
2022-10-09T12:54:07.783Z,18.66
2022-10-09T12:56:38.502Z,18.60
2022-10-09T12:59:10.147Z,18.46
2022-10-09T13:01:40.487Z,18.55
2022-10-09T13:04:09.354Z,18.63
2022-10-09T13:06:51.049Z,18.52
2022-10-09T13:09:23.007Z,18.41
2022-10-09T13:12:18.245Z,18.46
2022-10-09T13:15:08.627Z,18.37
2022-10-09T13:17:36.939Z,18.36
2022-10-09T13:20:12.499Z,18.53
2022-10-09T13:22:39.499Z,18.64
2022-10-09T13:25:09.849Z,18.56
2022-10-09T13:27:39.308Z,18.16
2022-10-09T13:30:07.658Z,17.94
2022-10-09T13:32:34.210Z,17.79
2022-10-09T13:35:01.102Z,17.79
2022-10-09T13:37:28.018Z,17.85
2022-10-09T13:39:56.627Z,17.96
2022-10-09T13:42:30.517Z,18.04
2022-10-09T13:44:59.856Z,17.92
2022-10-09T13:47:27.214Z,17.71
2022-10-09T13:49:54.643Z,17.58
2022-10-09T13:52:21.209Z,17.50
2022-10-09T13:54:47.973Z,17.39
2022-10-09T13:57:14.680Z,17.29
2022-10-09T13:59:41.239Z,17.24
2022-10-09T14:02:07.850Z,17.15
2022-10-09T14:04:34.519Z,17.02
2022-10-09T14:07:01.397Z,16.92
2022-10-09T14:09:27.938Z,16.89
2022-10-09T14:11:55.217Z,16.87
2022-10-09T14:14:22.612Z,16.88
2022-10-09T14:16:51.656Z,16.81
2022-10-09T14:19:18.301Z,16.72
2022-10-09T14:21:46.983Z,16.68
2022-10-09T14:24:20.202Z,16.62
2022-10-09T14:26:51.616Z,16.55
2022-10-09T14:29:18.713Z,16.41
2022-10-09T14:31:45.515Z,16.29
2022-10-09T14:34:14.488Z,16.25
2022-10-09T14:36:42.372Z,16.27
2022-10-09T14:39:12.282Z,16.25
2022-10-09T14:41:38.924Z,16.25
2022-10-09T14:44:06.276Z,16.17
2022-10-09T14:46:34.328Z,16.08
2022-10-09T14:49:07.357Z,16.03
2022-10-09T14:51:39.517Z,15.99
2022-10-09T14:54:07.462Z,15.98
2022-10-09T14:56:34.785Z,15.96
2022-10-09T14:59:02.365Z,15.92
2022-10-09T15:01:29.775Z,15.91
2022-10-09T15:03:56.994Z,15.88
2022-10-09T15:06:27.711Z,15.84
2022-10-09T15:09:00.333Z,15.85
2022-10-09T15:11:31.886Z,15.86
2022-10-09T15:13:59.064Z,15.86
2022-10-09T15:16:26.666Z,15.81
2022-10-09T15:18:55.738Z,15.73
2022-10-09T15:21:24.970Z,15.71
2022-10-09T15:23:55.262Z,15.67
2022-10-09T15:26:22.873Z,15.64
2022-10-09T15:28:49.997Z,15.63
2022-10-09T15:31:24.524Z,15.60
2022-10-09T15:33:55.521Z,15.61
2022-10-09T15:36:22.974Z,15.54
2022-10-09T15:38:50.018Z,15.53
2022-10-09T15:41:30.688Z,15.48
2022-10-09T15:44:00.954Z,15.42
2022-10-09T15:46:28.502Z,15.38
2022-10-09T15:48:55.987Z,15.28
2022-10-09T15:51:24.473Z,15.24
2022-10-09T15:53:53.524Z,15.17
2022-10-09T15:56:23.163Z,15.10
2022-10-09T15:58:52.686Z,15.04
2022-10-09T16:01:23.041Z,14.97
2022-10-09T16:03:50.356Z,14.92
2022-10-09T16:06:19.484Z,14.88
2022-10-09T16:08:47.102Z,14.80
2022-10-09T16:11:20.320Z,14.71
2022-10-09T16:13:50.453Z,14.61
2022-10-09T16:16:23.635Z,14.52
2022-10-09T16:18:53.302Z,14.41
2022-10-09T16:21:23.160Z,14.32
2022-10-09T16:23:53.282Z,14.25
2022-10-09T16:26:22.920Z,14.16
2022-10-09T16:28:51.738Z,14.09
2022-10-09T16:31:24.641Z,13.98
2022-10-09T16:33:51.329Z,13.92
2022-10-09T16:36:19.026Z,13.83
2022-10-09T16:38:45.607Z,13.74
2022-10-09T16:41:19.395Z,13.65
2022-10-09T16:43:48.196Z,13.54
2022-10-09T16:46:30.087Z,13.45
2022-10-09T16:48:58.346Z,13.34
2022-10-09T16:51:36.879Z,13.22
2022-10-09T16:54:05.605Z,13.08
2022-10-09T16:56:38.302Z,12.96
2022-10-09T16:59:07.961Z,12.84
2022-10-09T17:01:45.254Z,12.74
2022-10-09T17:04:13.164Z,12.67
2022-10-09T17:06:41.467Z,12.64
2022-10-09T17:09:14.171Z,12.58
2022-10-09T17:11:41.730Z,12.46
2022-10-09T17:14:11.311Z,12.34
2022-10-09T17:16:40.193Z,12.24
2022-10-09T17:19:07.654Z,12.14
2022-10-09T17:21:34.925Z,12.08
2022-10-09T17:24:06.451Z,12.02
2022-10-09T17:26:34.581Z,11.93
2022-10-09T17:29:02.270Z,11.84
2022-10-09T17:31:29.690Z,11.74
2022-10-09T17:33:59.097Z,11.65
2022-10-09T17:36:28.798Z,11.55
2022-10-09T17:38:55.928Z,11.47
2022-10-09T17:41:25.999Z,11.42
2022-10-09T17:43:54.208Z,11.38
2022-10-09T17:46:22.281Z,11.35
2022-10-09T17:48:56.684Z,11.27
2022-10-09T17:51:28.724Z,11.19
2022-10-09T17:59:34.752Z,10.99
2022-10-09T18:02:44.375Z,10.93
2022-10-09T18:05:51.050Z,10.89
2022-10-09T18:08:53.900Z,10.87
2022-10-09T18:15:32.494Z,10.78
2022-10-09T18:17:59.468Z,10.72
2022-10-09T18:21:03.432Z,10.65
2022-10-09T18:23:35.612Z,10.58
2022-10-09T18:26:17.760Z,10.50
2022-10-09T18:28:48.286Z,10.40
2022-10-09T18:31:31.660Z,10.28
2022-10-09T18:34:09.825Z,10.24
2022-10-09T18:37:28.992Z,10.16
2022-10-09T18:40:25.576Z,10.05
2022-10-09T18:42:52.793Z,10.01
2022-10-09T18:45:20.379Z,9.95
2022-10-09T18:47:47.011Z,9.91
2022-10-09T18:50:15.100Z,9.88
2022-10-09T18:52:42.638Z,9.83
2022-10-09T18:55:12.667Z,9.80
2022-10-09T18:57:41.546Z,9.77
2022-10-09T19:00:09.130Z,9.77
2022-10-09T19:02:36.318Z,9.74
2022-10-09T19:05:03.320Z,9.70
2022-10-09T19:07:29.945Z,9.68
2022-10-09T19:09:57.463Z,9.63
2022-10-09T19:12:24.809Z,9.60
2022-10-09T19:14:52.533Z,9.51
2022-10-09T19:17:25.537Z,9.50
2022-10-09T19:19:54.897Z,9.47
2022-10-09T19:22:23.883Z,9.46
2022-10-09T19:24:51.568Z,9.45
2022-10-09T19:27:18.417Z,9.38
2022-10-09T19:29:44.977Z,9.32
2022-10-09T19:32:12.787Z,9.22
2022-10-09T19:34:39.498Z,9.19
2022-10-09T19:37:06.543Z,9.19
2022-10-09T19:39:33.339Z,9.15
2022-10-09T19:42:00.222Z,9.13
2022-10-09T19:44:26.910Z,9.07
2022-10-09T19:46:53.771Z,9.07
2022-10-09T19:49:26.310Z,9.03
2022-10-09T19:51:52.978Z,9.03
2022-10-09T19:54:19.729Z,9.03
2022-10-09T19:56:49.199Z,8.99
2022-10-09T19:59:16.668Z,8.95
2022-10-09T20:01:43.187Z,8.91
2022-10-09T20:04:11.623Z,8.87
2022-10-09T20:06:40.913Z,8.88
2022-10-09T20:09:08.936Z,8.81
2022-10-09T20:11:37.066Z,8.80
2022-10-09T20:14:07.620Z,8.78
2022-10-09T20:16:34.265Z,8.73
2022-10-09T20:19:01.806Z,8.73
2022-10-09T20:21:30.759Z,8.73
2022-10-09T20:23:58.564Z,8.71
2022-10-09T20:26:25.518Z,8.69
2022-10-09T20:28:54.117Z,8.66
2022-10-09T20:31:24.014Z,8.65
2022-10-09T20:33:51.847Z,8.61
2022-10-09T20:36:23.400Z,8.60
2022-10-09T20:38:50.259Z,8.53
2022-10-09T20:41:16.965Z,8.48
2022-10-09T20:43:53.756Z,8.46
2022-10-09T20:46:23.664Z,8.52
2022-10-09T20:48:52.000Z,8.55
2022-10-09T20:51:19.922Z,8.59
2022-10-09T20:53:47.014Z,8.60
2022-10-09T20:56:14.684Z,8.63
2022-10-09T20:58:41.923Z,8.67
2022-10-09T21:01:11.249Z,8.72
2022-10-09T21:03:38.586Z,8.77
2022-10-09T21:06:07.024Z,8.80
2022-10-09T21:08:36.362Z,8.81
2022-10-09T21:11:11.232Z,8.84
2022-10-09T21:13:38.815Z,8.83
2022-10-09T21:16:07.522Z,8.83
2022-10-09T21:18:34.505Z,8.81
2022-10-09T21:21:12.467Z,8.81
2022-10-09T21:23:39.228Z,8.80
2022-10-09T21:26:10.630Z,8.79
2022-10-09T21:28:37.155Z,8.79
2022-10-09T21:31:11.277Z,8.80
2022-10-09T21:33:43.049Z,8.82
2022-10-09T21:36:25.402Z,8.86
2022-10-09T21:38:53.567Z,8.90
2022-10-09T21:41:21.846Z,8.92
2022-10-09T21:43:48.665Z,8.97
2022-10-09T21:46:15.308Z,9.03
2022-10-09T21:48:41.949Z,9.07
2022-10-09T21:51:09.250Z,9.10
2022-10-09T21:53:39.594Z,9.10
2022-10-09T21:56:07.177Z,9.11
2022-10-09T21:58:33.987Z,9.11
2022-10-09T22:01:01.815Z,9.10
2022-10-09T22:03:30.244Z,9.09
2022-10-09T22:05:57.045Z,9.06
2022-10-09T22:08:24.526Z,9.03
2022-10-09T22:10:51.375Z,8.98
2022-10-09T22:13:21.529Z,8.93
2022-10-09T22:15:51.456Z,8.92
2022-10-09T22:18:18.822Z,8.89
2022-10-09T22:20:48.303Z,8.85
2022-10-09T22:23:15.511Z,8.83
2022-10-09T22:25:42.012Z,8.82
2022-10-09T22:28:08.861Z,8.82
2022-10-09T22:30:35.557Z,8.83
2022-10-09T22:33:02.300Z,8.81
2022-10-09T22:35:29.059Z,8.81
2022-10-09T22:37:57.184Z,8.84
2022-10-09T22:40:23.689Z,8.85
2022-10-09T22:42:51.317Z,8.83
2022-10-09T22:45:18.951Z,8.82
2022-10-09T22:47:47.880Z,8.81
2022-10-09T22:50:14.827Z,8.80
2022-10-09T22:52:41.888Z,8.80
2022-10-09T22:55:08.915Z,8.77
2022-10-09T22:57:36.444Z,8.73
2022-10-09T23:00:04.663Z,8.70
2022-10-09T23:02:31.487Z,8.67
2022-10-09T23:04:58.011Z,8.65
2022-10-09T23:07:24.789Z,8.62
2022-10-09T23:09:51.391Z,8.62
2022-10-09T23:12:20.777Z,8.59
2022-10-09T23:14:47.636Z,8.56
2022-10-09T23:17:16.523Z,8.55
2022-10-09T23:19:43.435Z,8.53
2022-10-09T23:22:10.478Z,8.54
2022-10-09T23:24:37.203Z,8.54
2022-10-09T23:27:06.990Z,8.52
2022-10-09T23:29:33.487Z,8.52
2022-10-09T23:31:59.991Z,8.51
2022-10-09T23:34:27.090Z,8.52
2022-10-09T23:36:53.744Z,8.53
2022-10-09T23:39:20.700Z,8.51
2022-10-09T23:41:47.618Z,8.48
2022-10-09T23:44:15.320Z,8.52
2022-10-09T23:46:44.248Z,8.56
2022-10-09T23:49:10.874Z,8.60
2022-10-09T23:51:38.135Z,8.65
2022-10-09T23:54:07.216Z,8.70
2022-10-09T23:56:35.942Z,8.74
2022-10-09T23:59:06.147Z,8.77
